SiteLock Weer in Ekeren en de Haven van Antwerpen - Nearby METAR Reports

Nearby METAR Reports

 

EBAW - Airport Antwerp
Ververst: 20/10/2018 05:50
Helder
Helder
 Wind van varies
Wind: varies 2 km/h
Temperatuur: 7°C
Dauwpunt: 3°C
Vochtigheid: 76%
Barometer: 1029 hPa
Clouds: Helder
Visibility: 4 km
2018/10/20 03:50 EBAW 200350Z AUTO VRB01KT 4000 R11/P2000N R29/0800N // NCD 07/03 Q1029
EBBR - Brussels National Airport
Ververst: 20/10/2018 05:50
Shallow fog, Gedeeltelijk bewolkt
Shallow fog, Gedeeltelijk bewolkt
 Wind van NNW
Wind: NNW 4 km/h
Temperatuur: 6°C
Dauwpunt: 5°C
Vochtigheid: 93%
Barometer: 1029 hPa
Overzicht: Shallow Fog
Clouds: Gedeeltelijk bewolkt
Visibility: 8 km
2018/10/20 03:50 EBBR 200350Z 33002KT 8000 MIFG NSC 06/05 Q1029 TEMPO 4500 MIFG BR
 
EBBL - Kleine Brogel Military Airport
Ververst: 20/10/2018 05:55
Fog, Helder
Fog, Helder
 Wind van varies
Wind: varies 2 km/h
Temperatuur: 4°C
Dauwpunt: 4°C
Vochtigheid: 100%
Barometer: 1029 hPa
Overzicht: Fog
Clouds: Helder
Visibility: 0 km
2018/10/20 03:55 EBBL 200355Z AUTO VRB01KT 0200 FG NCD 04/04 Q1029 RED
EBCI - Charleroi Airport
Ververst: 20/10/2018 05:50
Shallow fog, Mist, Gedeeltelijk bewolkt
Shallow fog, Mist, Gedeeltelijk bewolkt
 Wind van NO
Wind: NO 4 km/h
Temperatuur: 6°C
Dauwpunt: 6°C
Vochtigheid: 100%
Barometer: 1029 hPa
Overzicht: Shallow fog, Mist
Clouds: Gedeeltelijk bewolkt
Visibility: 3 km
2018/10/20 03:50 EBCI 200350Z 04002KT 2500 MIFG BR NSC 06/06 Q1029 TEMPO 0500 FG
 
LERS - Reus Airport
Ververst: 20/10/2018 06:00
Helder
Helder
 Wind van NNO
Wind: NNO 7 km/h
Temperatuur: 17°C
Dauwpunt: 13°C
Vochtigheid: 77%
Barometer: 1019 hPa
Clouds: Helder
Visibility: 10 km
2018/10/20 04:00 LERS 200400Z AUTO 03004KT 330V080 9999 NCD 17/13 Q1019
LIML - Milan Airport
Ververst: 20/10/2018 05:50
Patches of fog, Gedeeltelijk bewolkt
Patches of fog, Gedeeltelijk bewolkt
 Wind van WZW
Wind: WZW 2 km/h
Temperatuur: 12°C
Dauwpunt: 12°C
Vochtigheid: 100%
Barometer: 1021 hPa
Overzicht: Patches of Fog
Clouds: Gedeeltelijk bewolkt
Visibility: 3 km
2018/10/20 03:50 LIML 200350Z 25001KT 3000 R36/1400U BCFG NSC 12/12 Q1021 NOSIG
 
LPMA - Madeira Airport
Ververst: 20/10/2018 06:00
Lichte regen, Showers, Few clouds
Lichte regen, Showers, Few clouds
 Wind van N
Wind: N 19 km/h
Temperatuur: 19°C
Dauwpunt: 16°C
Vochtigheid: 83%
Barometer: 1014 hPa
Overzicht: Lichte regen, Showers
Clouds: Few Clouds
Visibility: 10 km
Cloud details: Meestal bewolkt 457 m
Few Clouds 488 m
2018/10/20 04:00 LPMA 200400Z 36010KT 310V050 9999 -SHRA BKN015 FEW016TCU 19/16 Q1014
LGKO - Kos Airport
Ververst: 20/10/2018 05:50
Few Clouds
Few Clouds
 Wind van N
Wind: N 15 km/h
Temperatuur: 19°C
Dauwpunt: 16°C
Vochtigheid: 83%
Barometer: 1014 hPa
Clouds: Few Clouds
Visibility: 10 km
Cloud details: Few Clouds 366 m
2018/10/20 03:50 LGKO 200350Z 35008KT 9999 FEW012 19/16 Q1014
 
LIRQ - Firenze Airport
Ververst: 20/10/2018 05:50
Helder
Helder
 Wind van varies
Wind: varies 2 km/h
Temperatuur: 11°C
Dauwpunt: 10°C
Vochtigheid: 94%
Barometer: 1020 hPa
Overzicht: Helder
Visibility: greater than 10 km
2018/10/20 03:50 LIRQ 200350Z VRB01KT CAVOK 11/10 Q1020
LIRP - Pisa Airport
Ververst: 20/10/2018 05:45
Helder
Helder
 Wind van OZO
Wind: OZO 7 km/h
Temperatuur: 12°C
Dauwpunt: 12°C
Vochtigheid: 100%
Barometer: 1019 hPa
Overzicht: Helder
Visibility: greater than 10 km
2018/10/20 03:45 LIRP 200345Z 11004KT CAVOK 12/12 Q1019 NOSIG